Date,TemperatureHighF,TemperatureAvgF,TemperatureLowF,DewpointHighF,DewpointAvgF,DewpointLowF,HumidityHigh,HumidityAvg,HumidityLow,PressureMaxIn,PressureMinIn,WindSpeedMaxMPH,WindSpeedAvgMPH,GustSpeedMaxMPH,PrecipitationSumIn
2013-1-1,35,32,23,29,23,12,78,69,56,29.49,29.33,3,0,10,0.00
2013-1-2,28,24,17,18,14,10,77,67,61,29.65,29.48,3,0,11,0.00
2013-1-3,28,22,11,19,14,5,75,70,57,29.68,29.55,2,0,6,0.00
2013-1-4,35,30,27,26,22,19,80,71,61,29.55,29.43,1,0,9,0.00
2013-1-5,38,33,30,25,23,19,73,65,56,29.77,29.48,3,0,12,0.00
2013-1-6,41,35,31,31,27,23,88,74,62,29.71,29.47,1,0,5,0.00
2013-1-7,41,36,30,30,26,21,81,67,49,29.89,29.53,2,0,9,0.00
2013-1-8,44,36,28,31,27,23,85,72,59,29.91,29.83,2,0,8,0.00
2013-1-9,43,38,33,36,31,26,83,76,69,29.88,29.63,2,0,8,0.00
2013-1-10,43,40,36,33,26,23,73,57,46,30.04,29.70,3,0,11,0.00
2013-1-11,41,36,32,40,30,23,95,79,64,30.03,29.63,2,0,6,0.22
2013-1-12,44,42,40,43,41,39,96,95,95,29.68,29.59,1,0,5,0.25
2013-1-13,45,43,40,44,42,39,97,96,96,29.67,29.52,1,0,5,0.00
2013-1-14,54,46,34,52,42,30,97,87,67,29.80,29.42,2,0,9,0.04
2013-1-15,36,34,32,31,28,26,91,81,70,29.84,29.72,2,0,8,0.12
2013-1-16,33,31,29,32,29,27,95,93,81,29.74,29.34,1,0,6,0.49
2013-1-17,40,34,30,31,29,21,95,80,63,29.59,29.41,2,0,9,0.01
2013-1-18,29,24,21,21,12,7,73,59,46,29.96,29.52,3,1,11,0.00
2013-1-19,44,36,25,30,24,13,74,62,52,29.89,29.42,3,0,9,0.00
2013-1-20,48,39,27,32,25,12,78,58,34,29.51,29.18,4,1,12,0.00
2013-1-21,29,26,22,20,14,10,80,62,52,29.58,29.31,2,0,9,0.00
2013-1-22,24,18,11,18,3,-7,78,52,39,29.65,29.31,4,1,15,0.00
2013-1-23,18,12,8,1,-2,-6,63,52,42,29.71,29.63,3,0,11,0.00
2013-1-24,20,13,6,4,1,-2,75,58,40,29.84,29.61,4,1,16,0.00
2013-1-25,22,16,11,16,6,0,87,65,46,29.88,29.55,2,0,9,0.03
2013-1-26,24,17,12,12,9,5,87,70,51,29.83,29.52,2,0,10,0.03
2013-1-27,30,23,15,13,10,6,79,60,41,29.99,29.83,2,0,9,0.00
2013-1-28,32,28,24,30,23,12,94,80,57,29.97,29.50,1,0,7,0.19
2013-1-29,42,36,32,40,34,30,95,93,88,29.65,29.49,2,0,7,0.06
2013-1-30,52,45,35,51,44,34,97,96,95,29.61,28.90,3,0,9,0.06
2013-1-31,53,38,27,52,24,12,97,58,42,29.23,28.74,4,1,16,0.79
2013-2-1,30,26,21,16,11,5,68,53,38,29.68,29.24,4,1,17,0.07
2013-2-2,27,22,17,19,11,7,89,63,42,29.77,29.56,2,0,9,0.02
2013-2-3,28,23,17,19,17,15,91,79,61,29.56,29.28,3,0,8,0.02
2013-2-4,29,24,20,20,13,9,85,62,44,29.46,29.29,3,1,12,0.00
2013-2-5,27,25,23,24,21,14,91,83,65,29.48,29.40,2,0,5,0.00
2013-2-6,36,30,25,27,21,7,93,71,44,29.84,29.41,4,1,10,0.00
2013-2-7,30,24,19,20,10,4,75,54,39,30.00,29.83,3,0,9,0.00
2013-2-8,31,29,25,29,26,21,93,88,74,29.85,29.13,8,4,18,0.47
2013-2-9,28,24,17,25,20,10,93,86,74,29.80,29.23,6,2,18,0.55
2013-2-10,34,23,13,19,10,5,80,60,31,29.96,29.80,3,0,14,0.03
2013-2-11,41,35,27,40,33,19,96,92,72,29.83,29.18,1,0,4,0.23
2013-2-12,41,37,34,37,29,23,96,75,60,29.46,29.21,3,0,12,0.05
2013-2-13,41,35,29,30,25,21,92,67,53,29.44,29.21,2,0,7,0.04
2013-2-14,41,34,28,31,28,25,94,79,58,29.50,29.22,2,0,5,0.05
2013-2-15,49,40,31,36,32,27,92,74,49,29.52,29.42,1,0,8,0.00
2013-2-16,38,32,27,32,25,15,93,76,59,29.47,29.23,3,1,14,0.02
2013-2-17,29,23,14,15,7,1,60,51,38,29.43,29.13,6,3,20,0.01
2013-2-18,30,22,14,15,8,3,64,54,41,29.71,29.43,5,2,14,0.00
2013-2-19,43,35,26,39,28,14,95,76,56,29.70,29.18,3,0,9,0.24
2013-2-20,35,29,22,29,17,10,79,62,49,29.44,29.19,5,2,14,0.08
2013-2-21,31,25,22,16,14,12,71,62,51,29.78,29.44,4,2,14,0.00
2013-2-22,36,29,22,27,21,14,83,73,56,29.90,29.76,4,1,13,0.00
2013-2-23,38,34,32,37,32,27,95,92,83,29.78,29.32,7,2,14,0.02
2013-2-24,42,36,31,38,32,24,96,87,67,29.45,29.25,4,1,9,0.01
2013-2-25,43,35,29,29,26,22,78,68,54,29.74,29.44,2,0,11,0.00
2013-2-26,38,35,31,32,29,26,92,79,63,29.80,29.46,9,2,21,0.11
2013-2-27,43,39,33,41,37,31,96,94,92,29.46,29.01,13,5,35,0.85
2013-2-28,46,40,37,40,35,31,93,82,65,29.13,29.05,1,0,7,0.03
2013-3-1,43,37,31,34,30,26,92,77,60,29.28,29.10,3,0,9,0.01
2013-3-2,38,34,29,27,25,23,90,72,62,29.27,29.19,2,0,7,0.00
2013-3-3,39,31,27,26,22,18,88,70,52,29.24,29.15,3,0,16,0.00
2013-3-4,39,31,26,24,20,17,76,64,51,29.38,29.23,4,1,14,0.00
2013-3-5,45,36,28,28,24,20,77,64,49,29.53,29.38,2,1,13,0.00
2013-3-6,39,37,34,36,30,27,90,77,66,29.50,29.39,8,4,21,0.02
2013-3-7,37,33,31,32,29,25,94,84,72,29.57,29.42,6,2,18,0.18
2013-3-8,37,32,29,31,28,26,93,85,68,29.69,29.49,5,2,15,0.51
2013-3-9,48,39,30,28,23,19,76,54,33,29.82,29.68,4,1,12,0.01
2013-3-10,46,38,31,35,31,21,90,75,53,29.88,29.80,3,0,8,0.00
2013-3-11,50,42,35,44,38,32,94,87,73,29.82,29.61,3,0,9,0.00
2013-3-12,53,49,41,52,47,37,95,93,85,29.62,29.20,8,2,16,1.23
2013-3-13,49,42,36,38,32,25,90,69,44,29.38,29.29,2,0,9,0.22
2013-3-14,36,32,26,29,16,9,78,53,33,29.41,29.34,4,2,14,0.00
2013-3-15,40,34,26,30,22,12,71,60,51,29.44,29.22,3,0,10,0.00
2013-3-16,36,32,30,28,23,19,90,70,52,29.38,29.28,3,0,7,0.02
2013-3-17,37,31,26,27,20,13,91,65,39,29.71,29.42,2,0,7,0.01
2013-3-18,32,27,23,25,13,7,88,54,42,29.91,29.68,4,2,14,0.01
2013-3-19,36,33,31,33,31,28,95,92,83,29.50,29.22,8,1,17,0.44
2013-3-20,41,34,26,28,21,19,81,60,44,29.36,29.28,3,0,9,0.03
2013-3-21,36,32,29,26,21,16,85,65,43,29.34,29.14,2,0,7,0.00
2013-3-22,39,32,26,23,19,13,68,58,49,29.36,29.21,3,1,9,0.00
2013-3-23,43,36,30,25,22,19,69,57,43,29.39,29.30,4,1,15,0.00
2013-3-24,44,36,28,26,23,20,74,60,45,29.44,29.23,3,0,8,0.00
2013-3-25,41,37,33,34,28,24,89,71,53,29.24,28.97,6,1,14,0.00
2013-3-26,50,41,35,34,29,26,74,62,43,29.30,29.12,3,0,11,0.00
2013-3-27,52,41,32,30,26,22,69,56,37,29.46,29.36,3,0,9,0.00
2013-3-28,47,42,34,34,30,28,78,65,54,29.60,29.46,2,0,9,0.00
2013-3-29,55,44,37,32,29,27,70,56,37,29.63,29.55,3,0,9,0.00
2013-3-30,56,45,35,34,27,20,79,51,27,29.66,29.57,2,0,9,0.00
2013-3-31,53,46,39,41,30,-100,94,57,38,29.64,29.20,5,1,13,0.13
2013-4-1,61,46,35,46,37,13,96,74,39,29.39,29.12,3,1,12,0.13
2013-4-2,42,35,29,19,15,12,65,44,31,29.57,29.39,4,1,15,0.00
2013-4-3,45,36,29,18,14,10,60,42,29,29.78,29.56,5,1,12,0.00
2013-4-4,51,38,28,32,21,14,76,51,28,29.87,29.58,3,1,9,0.00
2013-4-5,60,46,37,32,24,16,75,46,22,29.59,29.23,3,1,16,0.00
2013-4-6,49,40,32,28,15,3,69,39,16,29.81,29.48,4,1,16,0.00
2013-4-7,53,44,34,43,35,27,88,71,49,29.81,29.52,6,1,13,0.00
2013-4-8,70,56,44,45,42,38,91,63,31,29.59,29.49,2,0,8,0.00
2013-4-9,78,64,48,52,44,37,90,54,28,29.53,29.44,4,1,12,0.00
2013-4-10,69,60,50,54,49,39,95,70,43,29.51,29.34,4,0,11,0.34
2013-4-11,62,53,44,56,48,37,96,83,61,29.57,29.32,5,1,12,0.34
2013-4-12,44,41,38,39,36,30,95,84,60,29.57,29.24,12,5,28,0.30
2013-4-13,55,46,37,40,36,33,95,73,50,29.47,29.26,2,0,8,0.06
2013-4-14,54,48,41,39,32,27,78,54,37,29.73,29.47,4,1,12,0.00
2013-4-15,55,46,39,35,30,24,72,54,41,29.89,29.73,4,1,9,0.00
2013-4-16,62,51,41,52,45,35,89,79,65,29.89,29.64,4,1,13,0.00
2013-4-17,65,58,51,54,41,33,90,57,33,29.80,29.63,3,0,10,0.00
2013-4-18,58,51,43,48,40,32,90,68,43,29.86,29.64,4,1,15,0.00
2013-4-19,70,60,51,62,56,48,96,89,73,29.64,29.19,5,1,11,0.04
2013-4-20,60,51,43,59,38,23,95,65,35,29.80,29.19,4,1,12,0.18
2013-4-21,50,43,33,30,23,20,66,47,31,30.12,29.78,3,1,11,0.01
2013-4-22,52,44,35,36,29,23,84,60,37,30.17,30.02,7,3,23,0.00
2013-4-23,50,42,36,41,36,30,91,79,70,30.01,29.62,4,1,11,0.00
2013-4-24,68,52,40,50,43,37,92,75,48,29.62,29.35,3,1,8,0.00
2013-4-25,61,53,44,50,32,20,94,50,21,29.77,29.38,3,1,10,0.00
2013-4-26,63,54,43,36,32,26,71,45,26,29.92,29.77,3,0,8,0.00
2013-4-27,66,55,43,34,28,18,58,39,16,29.93,29.79,2,0,9,0.00
2013-4-28,67,54,43,47,37,29,86,55,32,29.83,29.72,3,0,9,0.00
2013-4-29,55,52,50,49,44,35,88,74,54,29.76,29.71,2,0,9,0.01
2013-4-30,64,55,49,46,36,25,81,53,27,29.85,29.73,5,1,9,0.01
2013-5-1,64,55,45,45,35,25,80,48,25,29.99,29.84,6,1,16,0.00
2013-5-2,71,59,47,45,41,35,82,56,30,29.99,29.83,2,0,7,0.00
2013-5-3,62,55,47,44,40,33,84,58,37,29.97,29.87,5,1,12,0.00
2013-5-4,66,54,45,46,43,40,91,68,42,29.89,29.75,3,0,9,0.00
2013-5-5,59,50,41,43,40,36,90,70,44,29.81,29.73,3,0,9,0.00
2013-5-6,65,54,42,52,46,39,93,77,57,29.78,29.67,1,0,6,0.00
2013-5-7,70,60,49,57,52,45,90,75,55,29.70,29.62,2,0,11,0.00
2013-5-8,61,58,53,60,57,52,96,94,88,29.64,29.51,3,0,11,0.50
2013-5-9,62,56,52,59,55,51,97,95,85,29.54,29.41,0,0,3,0.26
2013-5-10,76,64,54,61,53,-100,95,74,46,29.52,29.43,1,0,5,0.05
2013-5-11,64,60,58,63,59,54,96,94,86,29.42,29.23,0,0,6,0.38
2013-5-12,68,58,48,58,46,-100,97,69,35,29.42,29.18,2,0,7,0.01
2013-5-13,54,48,39,36,32,27,79,56,38,29.60,29.42,1,0,6,0.01
2013-5-14,58,49,38,38,31,25,78,54,29,29.63,29.53,2,0,8,0.00
2013-5-15,62,53,44,54,46,37,90,77,56,29.58,29.21,2,0,7,0.01
2013-5-16,77,61,57,56,31,-100,90,61,32,29.35,29.23,1,0,5,0.01
2013-5-17,68,61,54,45,38,-100,63,49,38,29.72,29.35,1,0,6,0.00
2013-5-18,69,58,50,54,48,36,95,71,46,29.83,29.72,0,0,4,0.03
2013-5-19,56,55,53,55,53,51,96,95,93,29.85,29.70,1,0,7,0.13
2013-5-20,74,64,55,67,61,54,97,91,77,29.70,29.49,1,0,4,0.02
2013-5-21,84,72,62,71,66,61,96,82,61,29.51,29.37,0,0,4,0.00
2013-5-22,74,65,56,68,62,55,96,90,78,29.46,29.38,1,0,9,0.00
2013-5-23,75,66,63,71,64,62,97,95,86,29.42,29.30,1,0,6,2.72
2013-5-24,63,55,44,62,54,42,97,96,94,29.44,29.20,1,0,10,0.66
2013-5-25,49,45,42,47,43,40,96,93,85,29.49,29.38,3,0,12,0.49
2013-5-26,62,53,43,47,42,37,93,68,47,29.70,29.42,2,0,10,0.03
2013-5-27,71,59,46,46,42,37,77,55,32,29.75,29.64,1,0,6,0.00
2013-5-28,66,58,53,55,49,40,96,75,42,29.74,29.65,0,0,4,0.28
2013-5-29,77,65,56,70,62,55,97,90,76,29.66,29.53,0,0,3,0.06
2013-5-30,88,76,66,72,67,63,93,74,51,30.17,29.59,1,0,5,0.00
2013-5-31,90,78,69,71,66,63,83,69,43,30.20,30.07,0,0,2,0.00
2013-6-1,87,76,67,72,67,62,91,74,56,30.10,29.98,1,0,5,0.00
2013-6-2,86,74,64,72,67,-100,95,81,61,30.00,29.85,0,0,7,0.06
2013-6-3,74,68,63,68,64,53,96,88,69,29.96,29.89,0,0,5,1.36
2013-6-4,70,63,52,54,47,40,79,59,40,30.20,29.96,1,0,6,0.12
2013-6-5,70,62,53,55,46,39,75,57,44,30.30,30.20,1,0,7,0.00
2013-6-6,69,60,53,58,54,48,95,82,53,30.24,30.12,1,0,10,0.14
2013-6-7,59,58,56,58,57,55,96,96,95,30.12,29.76,4,1,13,2.57
2013-6-8,74,63,54,66,59,53,97,88,74,30.14,29.69,2,0,8,1.82
2013-6-9,77,68,59,63,59,56,93,75,55,30.26,30.14,0,0,4,0.04
2013-6-10,67,63,59,64,60,58,96,91,82,30.25,29.96,3,1,14,0.93
2013-6-11,77,67,59,71,64,57,97,90,74,29.96,29.69,2,0,7,0.76
2013-6-12,73,66,60,58,56,53,86,70,54,29.94,29.77,1,0,9,0.04
2013-6-13,63,58,53,58,55,52,95,90,70,29.92,29.60,5,1,17,0.98
2013-6-14,69,57,50,59,53,49,96,88,70,29.97,29.62,3,0,12,0.87
2013-6-15,75,64,58,62,56,52,89,75,47,30.09,29.96,0,0,3,0.02
2013-6-16,76,66,60,66,57,51,87,73,52,30.07,29.85,0,0,4,0.00
2013-6-17,82,70,63,69,64,60,95,83,60,29.99,29.93,0,0,3,0.11
2013-6-18,80,68,62,71,64,59,96,87,63,29.99,29.91,1,0,9,0.23
2013-6-19,73,64,56,61,54,46,95,74,38,30.26,29.97,1,0,9,0.19
2013-6-20,78,66,57,61,56,52,90,72,42,30.35,30.26,1,0,7,0.00
2013-6-22,82,75,64,64,62,57,77,64,52,30.35,30.22,0,0,4,0.00
2013-6-23,86,75,62,72,67,57,92,76,57,30.27,30.15,1,0,6,0.00
2013-6-24,91,77,70,75,70,68,95,82,48,30.16,30.03,0,0,10,0.00
2013-6-25,87,78,67,75,70,65,94,78,62,30.03,29.88,0,0,5,0.17
2013-6-26,80,75,71,72,69,67,91,81,72,29.92,29.84,0,0,5,0.00
2013-6-27,82,73,68,73,69,66,95,87,71,29.91,29.65,3,0,11,1.19
2013-6-28,82,74,69,74,70,65,96,88,70,29.65,29.55,1,0,7,1.25
2013-6-29,81,73,67,71,67,64,94,83,65,29.79,29.57,1,0,6,0.02
2013-6-30,80,72,67,75,70,66,96,92,80,30.01,29.79,1,0,8,0.01
2013-7-1,73,71,70,72,70,68,96,96,94,30.14,29.99,0,0,5,1.85
2013-7-2,80,73,70,75,71,69,97,94,84,30.26,30.14,0,0,6,0.02
2013-7-3,82,74,69,76,71,68,96,92,80,30.33,30.26,0,0,4,0.03
2013-7-4,87,78,72,78,74,71,97,86,69,30.33,30.23,0,0,7,0.01
2013-7-5,88,79,71,78,73,69,94,83,61,30.29,30.17,0,0,5,0.00
2013-7-6,89,79,73,77,74,71,93,83,64,30.21,30.12,0,0,5,0.00
2013-7-7,90,82,74,78,75,70,93,79,63,30.12,29.98,0,0,3,0.00
2013-7-8,87,76,70,74,68,-100,91,79,57,30.11,30.03,1,0,5,0.18
2013-7-9,84,76,69,74,70,66,94,83,63,30.15,30.07,0,0,5,0.21
2013-7-10,83,74,70,78,69,-100,95,87,77,30.10,29.88,0,0,3,0.13
2013-7-11,80,75,70,73,71,64,95,86,74,30.01,29.88,0,0,3,0.02
2013-7-12,75,70,64,70,65,62,95,85,75,30.20,30.01,3,1,13,0.12
2013-7-13,77,70,63,74,68,62,96,94,87,30.38,30.20,4,1,14,0.18
2013-7-14,87,78,72,77,73,71,97,88,67,30.42,30.31,1,0,6,0.04
2013-7-15,90,81,74,77,73,69,89,77,61,30.32,30.23,0,0,7,0.00
2013-7-16,90,81,73,74,69,66,83,67,48,30.28,30.22,2,0,10,0.00
2013-7-17,91,81,75,76,70,67,82,72,49,30.27,30.14,0,0,6,0.00
2013-7-18,94,83,75,79,73,69,86,73,50,30.14,30.03,1,0,3,0.00
2013-7-19,95,86,76,79,75,72,89,71,55,30.04,29.87,1,0,7,0.00
2013-7-20,91,82,76,77,71,-100,85,72,56,29.92,29.79,0,0,5,0.00
2013-7-21,84,76,70,70,65,62,86,70,51,30.04,29.91,2,0,11,0.00
2013-7-22,81,73,68,74,70,65,96,90,76,30.04,29.91,1,0,7,0.14
2013-7-23,84,75,71,76,72,70,96,91,73,29.90,29.66,1,0,6,0.86
2013-7-24,79,74,64,72,68,54,96,82,69,30.01,29.69,2,0,13,0.13
2013-7-25,64,62,59,58,55,51,85,80,70,30.15,30.01,3,0,15,0.00
2013-7-26,77,68,61,65,61,57,91,80,60,30.14,30.09,2,0,11,0.01
2013-7-27,81,71,62,68,64,61,95,78,55,30.15,30.06,1,0,8,0.00
2013-7-28,74,69,64,68,66,62,96,90,75,30.08,30.03,2,0,8,0.18
2013-7-29,81,71,66,70,67,60,97,88,54,30.17,30.05,1,0,9,0.01
2013-7-30,77,68,62,62,59,56,82,73,57,30.24,30.17,0,0,6,0.01
2013-7-31,80,70,61,64,60,57,88,71,47,30.24,30.13,1,0,5,0.00
2013-8-1,73,66,64,68,64,60,96,92,80,30.14,29.92,0,0,5,0.77
2013-8-2,80,70,64,69,66,63,97,87,61,29.99,29.88,1,0,7,0.57
2013-8-3,75,68,63,69,65,58,96,91,78,29.99,29.93,0,0,5,0.12
2013-8-4,76,67,61,65,60,54,95,80,54,30.05,29.93,1,0,8,0.43
2013-8-5,72,63,58,57,53,48,85,71,45,30.14,30.05,2,0,10,0.43
2013-8-6,78,67,58,63,57,52,84,71,47,30.22,30.13,2,0,8,0.00
2013-8-7,75,68,62,66,63,58,90,82,69,30.24,30.16,3,0,10,0.00
2013-8-8,77,71,67,74,69,66,96,94,85,30.17,30.10,2,0,7,0.17
2013-8-9,82,73,70,78,71,68,97,95,85,30.11,29.88,0,0,11,0.33
2013-8-10,79,72,64,70,65,55,96,79,60,30.14,29.93,1,0,8,0.14
2013-8-11,75,65,57,62,56,51,84,72,54,30.21,30.12,1,0,4,0.00
2013-8-21,85,76,67,68,64,61,85,68,46,30.27,30.14,1,0,5,0.00
2013-8-22,76,70,68,71,68,64,96,93,85,30.15,29.96,0,0,5,0.62
2013-8-23,77,70,64,68,61,53,96,75,51,30.19,29.96,3,0,10,0.01
2013-8-24,75,66,56,57,54,50,82,68,47,30.43,30.20,3,0,10,0.00
2013-8-25,80,66,58,63,53,-100,94,69,41,30.48,30.31,0,0,4,0.00
2013-8-26,78,70,64,68,62,57,92,77,67,30.32,30.01,0,0,6,0.31
2013-8-27,82,72,68,71,68,66,96,89,65,30.00,29.89,2,0,11,0.45
2013-10-2,78,66,58,63,58,54,90,76,60,30.09,30.01,1,0,8,0.00
2013-10-3,74,66,59,59,55,51,84,69,51,30.22,30.09,0,0,4,0.00
2013-10-4,79,67,61,70,62,56,93,85,69,30.15,30.07,1,0,8,0.10
2013-10-5,71,64,60,65,61,58,95,90,79,30.19,30.11,1,0,5,0.01
2013-10-6,64,63,62,62,62,61,96,95,93,30.20,30.14,4,1,12,0.03
2013-10-7,70,65,56,68,64,54,97,96,93,30.14,29.85,3,0,14,0.47
2013-10-8,62,55,49,54,46,43,93,74,54,30.44,30.04,2,0,17,0.06
2013-10-9,59,53,47,48,44,40,87,74,57,30.52,30.41,6,1,15,0.00
2013-10-10,61,54,49,56,50,44,89,85,80,30.41,30.20,4,1,15,0.01
2013-10-18,63,58,51,61,50,43,95,75,52,30.06,29.75,2,0,9,0.01
2013-10-19,61,53,46,52,46,41,90,77,59,30.08,29.85,0,0,4,0.06
2013-10-20,58,50,45,53,40,-100,93,74,52,30.15,29.84,2,0,8,0.03
2013-10-21,61,51,44,45,41,38,82,68,43,30.24,30.09,1,0,7,0.01
2013-10-22,62,53,47,53,48,42,95,83,63,30.09,29.84,2,0,7,0.01
2013-10-23,51,46,40,42,38,35,86,74,60,29.91,29.72,1,0,7,0.01
2013-10-24,51,43,37,37,32,29,87,67,43,30.09,29.83,1,0,9,0.00
2013-10-25,49,44,38,36,32,29,80,64,52,30.32,30.09,2,0,19,0.00
2013-10-26,50,43,34,37,32,30,92,69,46,30.31,30.00,2,0,10,0.00
2013-10-27,54,46,39,39,32,-100,84,62,45,30.21,29.95,2,0,9,0.01
2013-10-28,57,46,37,37,33,-100,84,64,45,30.42,30.21,1,0,11,0.00
2013-10-29,51,44,38,34,31,28,70,60,50,30.52,30.43,2,0,7,0.00
2013-10-30,56,48,41,48,40,29,90,75,61,30.46,30.29,0,0,4,0.00
2013-12-30,37,32,19,36,26,11,95,81,60,30.29,29.77,3,1,14,0.12
2013-12-31,28,22,17,22,14,9,84,70,55,30.37,30.17,4,1,13,0.00
2014-1-1,30,25,17,19,14,9,77,64,57,30.52,30.37,2,0,10,0.00
2014-1-2,27,22,13,21,18,10,89,85,70,30.39,29.81,7,3,19,0.02